Ada, OH

10:04 PM EST on December 26, 2014 (GMT -0500)
Marion Municipal | Change Station
CLOSE
Current Station
Airport
Location: Marion,
Elevation: 994 ft
Nearby Weather Stations

Elev 994 ft 40.62 °N, 83.06 °W | Updated 11 minutes ago

Partly Cloudy
Partly Cloudy
40 °F
Feels Like 34 °F
N
8
Wind Variable Wind from South

Today
High -- | Low -- °F
--% Chance of Precip.
Yesterday
High -- | Low -- °F
Precip. -- in
7:57 AM 5:13 PM
Waxing Crescent, 32% visible
Pressure 30.20 in
Visibility 10.0 miles
Clouds Clear
Windchill 34 °F
Dew Point 34 °F
Humidity 79%
Rainfall 0.00 in
Snow Depth Not available.
UV 0 out of 12
Pollen .10 out of 12
Air Quality Not available.
Flu Activity Not available.
METAR KMNN 270253Z AUTO 18007KT 10SM CLR 04/01 A3017 RMK AO2 SLP225 T00440011 53003 TSNO

More Conditions Fewer Conditions

Pressure 30.20 in
Visibility 10.0 miles
Clouds Clear
Windchill 34 °F
Dew Point 34 °F
Humidity 79%
Rainfall 0.00 in
Snow Depth Not available.
UV 0 out of 12
Pollen .10 out of 12
Air Quality Not available.
Flu Activity Not available.
METAR KMNN 270253Z AUTO 18007KT 10SM CLR 04/01 A3017 RMK AO2 SLP225 T00440011 53003 TSNO

More Conditions Fewer Conditions

10-Day Weather Forecast

Almanac

Astronomy

Dec. 26, 2014 Rise Set
Actual Time
Civil Twilight
Nautical Twilight
Astronomical Twilight
Moon
Length of Visible Light
Length of Day
Tomorrow will be .
, % of the Moon is Illuminated

Today's Extremes

State Highs State Lows

Community

WunderPhotos

Upload Photos

1,780,830 photos uploaded!

WunderBlogs® & News

Nearby

Air Quality

  Air Quality AQ Index Pollutant
Not available.

Snow Depth

Station Depth Elevation

Earthquake Activity

City Distance Mag. Time & Date
Minimum magnitude displayed is 2.5.

Coastal Water Temperatures

Place Temperature

Nearby Weather Stations